createdAt,value
2018-11-13T00:00:23.174Z,76.00
2018-11-13T00:02:51.390Z,76.10
2018-11-13T00:05:19.263Z,75.90
2018-11-13T00:07:46.803Z,76.00
2018-11-13T00:10:14.433Z,75.60
2018-11-13T00:12:42.021Z,75.50
2018-11-13T00:15:10.136Z,75.90
2018-11-13T00:17:38.057Z,76.30
2018-11-13T00:20:07.387Z,76.50
2018-11-13T00:22:34.997Z,76.60
2018-11-13T00:25:02.629Z,76.50
2018-11-13T00:27:30.219Z,76.30
2018-11-13T00:29:57.795Z,76.60
2018-11-13T00:32:25.387Z,76.50
2018-11-13T00:34:52.937Z,76.40
2018-11-13T00:37:20.477Z,76.30
2018-11-13T00:39:48.072Z,76.20
2018-11-13T00:42:15.629Z,76.10
2018-11-13T00:44:43.190Z,75.90
2018-11-13T00:47:11.735Z,76.30
2018-11-13T00:49:39.289Z,76.10
2018-11-13T00:52:06.847Z,76.20
2018-11-13T00:54:34.382Z,76.10
2018-11-13T00:57:01.991Z,75.90
2018-11-13T00:59:29.702Z,76.30
2018-11-13T01:01:57.138Z,76.40
2018-11-13T01:04:24.750Z,76.30
2018-11-13T01:06:52.421Z,76.50
2018-11-13T01:09:20.050Z,76.30
2018-11-13T01:11:47.650Z,76.30
2018-11-13T01:14:15.204Z,76.50
2018-11-13T01:16:42.782Z,76.30
2018-11-13T01:19:10.423Z,76.50
2018-11-13T01:21:38.042Z,76.40
2018-11-13T01:24:05.728Z,76.50
2018-11-13T01:26:33.309Z,76.50
2018-11-13T01:29:00.874Z,76.40
2018-11-13T01:31:28.425Z,76.30
2018-11-13T01:33:56.035Z,76.30
2018-11-13T01:36:23.646Z,76.50
2018-11-13T01:38:51.205Z,76.50
2018-11-13T01:41:18.762Z,76.40
2018-11-13T01:43:46.374Z,76.50
2018-11-13T01:46:14.003Z,76.60
2018-11-13T01:48:41.618Z,77.30
2018-11-13T01:51:09.177Z,77.20
2018-11-13T01:53:36.742Z,77.50
2018-11-13T01:56:04.921Z,77.30
2018-11-13T01:58:32.664Z,77.40
2018-11-13T02:01:00.131Z,77.70
2018-11-13T02:03:27.690Z,77.30
2018-11-13T02:05:55.228Z,77.40
2018-11-13T02:08:22.806Z,77.50
2018-11-13T02:10:50.383Z,77.20
2018-11-13T02:13:17.949Z,77.20
2018-11-13T02:15:45.492Z,76.70
2018-11-13T02:18:13.071Z,76.80
2018-11-13T02:20:40.645Z,76.30
2018-11-13T02:23:08.237Z,76.20
2018-11-13T02:25:35.764Z,76.10
2018-11-13T02:28:03.279Z,76.30
2018-11-13T02:30:30.801Z,75.80
2018-11-13T02:32:58.391Z,75.80
2018-11-13T02:35:25.947Z,76.30
2018-11-13T02:37:53.534Z,76.60
2018-11-13T02:40:21.053Z,76.60
2018-11-13T02:42:48.605Z,76.70
2018-11-13T02:45:17.467Z,76.80
2018-11-13T02:47:45.039Z,76.70
2018-11-13T02:50:14.437Z,76.90
2018-11-13T02:52:42.016Z,76.90
2018-11-13T02:55:10.324Z,76.40
2018-11-13T02:57:37.881Z,76.10
2018-11-13T03:00:08.179Z,76.20
2018-11-13T03:02:35.738Z,75.80
2018-11-13T03:05:03.707Z,75.50
2018-11-13T03:07:31.269Z,75.00
2018-11-13T03:09:58.791Z,75.10
2018-11-13T03:12:26.323Z,74.70
2018-11-13T03:14:53.893Z,75.10
2018-11-13T03:17:21.417Z,75.20
2018-11-13T03:19:48.990Z,74.80
2018-11-13T03:22:16.571Z,74.50
2018-11-13T03:24:44.129Z,74.40
2018-11-13T03:27:11.659Z,74.40
2018-11-13T03:29:39.229Z,74.40
2018-11-13T03:32:06.836Z,74.30
2018-11-13T03:34:34.406Z,74.10
2018-11-13T03:37:01.954Z,74.10
2018-11-13T03:39:29.498Z,74.10
2018-11-13T03:41:57.057Z,74.20
2018-11-13T03:44:24.596Z,74.10
2018-11-13T03:46:52.122Z,74.20
2018-11-13T03:49:19.685Z,74.10
2018-11-13T03:51:47.195Z,74.00
2018-11-13T03:54:14.803Z,74.30
2018-11-13T03:56:42.398Z,74.20
2018-11-13T03:59:09.943Z,74.10
2018-11-13T04:01:37.519Z,74.00
2018-11-13T04:04:10.744Z,74.40
2018-11-13T04:06:38.326Z,74.40
2018-11-13T04:09:08.000Z,74.60
2018-11-13T04:11:35.573Z,74.60
2018-11-13T04:14:03.192Z,74.90
2018-11-13T04:16:30.791Z,75.00
2018-11-13T04:18:58.352Z,74.90
2018-11-13T04:21:25.912Z,74.80
2018-11-13T04:23:53.477Z,75.30
2018-11-13T04:26:21.026Z,75.40
2018-11-13T04:28:48.586Z,75.70
2018-11-13T04:31:16.128Z,76.00
2018-11-13T04:33:43.680Z,75.90
2018-11-13T04:36:11.228Z,76.00
2018-11-13T04:38:38.778Z,76.20
2018-11-13T04:41:07.407Z,76.00
2018-11-13T04:43:34.946Z,75.80
2018-11-13T04:46:02.489Z,75.60
2018-11-13T04:48:30.120Z,75.30
2018-11-13T04:50:57.642Z,75.20
2018-11-13T04:53:25.192Z,74.90
2018-11-13T04:55:52.790Z,75.00
2018-11-13T04:58:20.327Z,75.10
2018-11-13T05:00:47.918Z,75.20
2018-11-13T05:03:15.479Z,75.30
2018-11-13T05:05:43.060Z,75.50
2018-11-13T05:08:10.626Z,75.60
2018-11-13T05:10:38.194Z,75.50
2018-11-13T05:13:05.745Z,75.20
2018-11-13T05:15:33.338Z,75.10
2018-11-13T05:18:00.943Z,74.80
2018-11-13T05:20:28.528Z,74.50
2018-11-13T05:22:56.151Z,74.50
2018-11-13T05:25:23.732Z,74.30
2018-11-13T05:27:51.419Z,74.50
2018-11-13T05:30:20.402Z,74.60
2018-11-13T05:32:48.095Z,74.50
2018-11-13T05:35:16.952Z,74.50
2018-11-13T05:37:45.012Z,74.70
2018-11-13T05:40:21.184Z,74.40
2018-11-13T05:42:48.735Z,74.30
2018-11-13T05:45:17.788Z,73.90
2018-11-13T05:47:45.311Z,73.70
2018-11-13T05:50:14.040Z,73.60
2018-11-13T05:52:42.485Z,73.60
2018-11-13T05:55:10.590Z,73.60
2018-11-13T05:57:38.283Z,73.60
2018-11-13T06:00:08.749Z,73.80
2018-11-13T06:02:36.637Z,74.00
2018-11-13T06:05:04.507Z,74.00
2018-11-13T06:07:32.139Z,74.00
2018-11-13T06:09:59.844Z,74.10
2018-11-13T06:12:27.494Z,74.20
2018-11-13T06:14:55.123Z,74.30
2018-11-13T06:17:22.727Z,74.30
2018-11-13T06:19:50.325Z,74.40
2018-11-13T06:22:17.925Z,74.20
2018-11-13T06:24:45.573Z,74.10
2018-11-13T06:27:13.225Z,74.20
2018-11-13T06:29:40.824Z,74.00
2018-11-13T06:32:08.870Z,74.10
2018-11-13T06:34:36.499Z,74.20
2018-11-13T06:37:04.165Z,74.40
2018-11-13T06:39:31.742Z,74.40
2018-11-13T06:41:59.327Z,74.50
2018-11-13T06:44:26.909Z,74.10
2018-11-13T06:46:55.189Z,74.10
2018-11-13T06:49:22.854Z,74.10
2018-11-13T06:51:51.525Z,74.10
2018-11-13T06:54:30.419Z,74.20
2018-11-13T06:56:57.998Z,74.30
2018-11-13T06:59:25.627Z,74.30
2018-11-13T07:01:53.311Z,74.30
2018-11-13T07:04:21.168Z,74.50
2018-11-13T07:06:49.419Z,74.40
2018-11-13T07:09:16.999Z,74.10
2018-11-13T07:11:44.609Z,74.10
2018-11-13T07:14:12.169Z,74.10
2018-11-13T07:16:40.099Z,73.90
2018-11-13T07:19:07.737Z,74.00
2018-11-13T07:21:35.466Z,74.30
2018-11-13T07:24:03.117Z,74.10
2018-11-13T07:26:30.851Z,74.10
2018-11-13T07:28:58.589Z,73.90
2018-11-13T07:31:27.017Z,74.40
2018-11-13T07:33:55.844Z,74.10
2018-11-13T07:36:23.573Z,74.20
2018-11-13T07:38:52.166Z,74.40
2018-11-13T07:41:21.453Z,74.60
2018-11-13T07:43:49.171Z,74.40
2018-11-13T07:46:17.526Z,74.50
2018-11-13T07:48:45.214Z,74.50
2018-11-13T07:51:12.904Z,74.20
2018-11-13T07:53:40.554Z,74.40
2018-11-13T07:56:08.170Z,74.80
2018-11-13T07:58:35.780Z,74.80
2018-11-13T08:01:03.384Z,75.10
2018-11-13T08:03:36.208Z,75.00
2018-11-13T08:06:04.480Z,74.60
2018-11-13T08:08:32.052Z,74.40
2018-11-13T08:11:00.550Z,74.40
2018-11-13T08:13:28.222Z,74.40
2018-11-13T08:15:55.776Z,74.70
2018-11-13T08:18:23.460Z,74.90
2018-11-13T08:20:51.073Z,75.20
2018-11-13T08:23:18.619Z,74.90
2018-11-13T08:25:46.319Z,74.90
2018-11-13T08:28:13.950Z,74.90
2018-11-13T08:30:41.553Z,74.70
2018-11-13T08:33:09.226Z,74.90
2018-11-13T08:35:36.811Z,75.10
2018-11-13T08:38:04.375Z,75.40
2018-11-13T08:40:31.934Z,75.50
2018-11-13T08:42:59.526Z,75.80
2018-11-13T08:45:27.116Z,75.80
2018-11-13T08:47:54.712Z,76.20
2018-11-13T08:50:22.402Z,76.50
2018-11-13T08:52:49.908Z,76.70
2018-11-13T08:55:17.586Z,76.80
2018-11-13T08:57:45.376Z,77.00
2018-11-13T09:00:14.599Z,77.20
2018-11-13T09:02:42.783Z,77.30
2018-11-13T09:05:10.643Z,77.40
2018-11-13T09:07:38.369Z,76.90
2018-11-13T09:10:08.333Z,76.60
2018-11-13T09:12:35.886Z,76.70
2018-11-13T09:15:04.877Z,76.50
2018-11-13T09:17:32.544Z,76.30
2018-11-13T09:20:00.137Z,76.50
2018-11-13T09:22:27.733Z,76.80
2018-11-13T09:24:55.338Z,76.70
2018-11-13T09:27:22.939Z,76.10
2018-11-13T09:29:50.625Z,75.90
2018-11-13T09:32:18.230Z,75.90
2018-11-13T09:34:45.830Z,76.20
2018-11-13T09:37:13.455Z,76.40
2018-11-13T09:39:41.150Z,76.30
2018-11-13T09:42:08.784Z,76.30
2018-11-13T09:44:36.438Z,76.10
2018-11-13T09:47:04.047Z,76.40
2018-11-13T09:49:31.674Z,76.30
2018-11-13T09:51:59.289Z,76.10
2018-11-13T09:54:26.880Z,76.10
2018-11-13T09:56:54.673Z,75.90
2018-11-13T09:59:22.333Z,76.00
2018-11-13T10:01:50.301Z,76.20
2018-11-13T10:04:18.473Z,76.50
2018-11-13T10:06:45.422Z,77.00
2018-11-13T10:09:13.523Z,77.00
2018-11-13T10:11:42.460Z,76.60
2018-11-13T10:14:10.661Z,76.70
2018-11-13T10:16:38.919Z,77.00
2018-11-13T10:19:07.081Z,77.60
2018-11-13T10:21:34.967Z,77.80
2018-11-13T10:24:02.556Z,77.80
2018-11-13T10:26:30.311Z,77.30
2018-11-13T10:28:57.775Z,77.50
2018-11-13T10:31:25.412Z,77.40
2018-11-13T10:33:52.965Z,77.60
2018-11-13T10:36:20.637Z,77.80
2018-11-13T10:38:48.227Z,78.00
2018-11-13T10:41:15.842Z,78.20
2018-11-13T10:43:43.413Z,77.80
2018-11-13T10:46:10.998Z,77.90
2018-11-13T10:48:38.550Z,78.30
2018-11-13T10:51:06.127Z,78.00
2018-11-13T10:53:33.724Z,77.70
2018-11-13T10:56:01.508Z,77.50
2018-11-13T10:58:29.134Z,77.80
2018-11-13T11:01:03.744Z,78.00
2018-11-13T11:03:36.850Z,78.50
2018-11-13T11:06:04.475Z,78.30
2018-11-13T11:08:32.096Z,78.60
2018-11-13T11:10:59.644Z,78.60
2018-11-13T11:13:27.328Z,79.20
2018-11-13T11:15:55.082Z,78.90
2018-11-13T11:18:22.706Z,78.50
2018-11-13T11:20:51.338Z,78.40
2018-11-13T11:23:18.946Z,78.30
2018-11-13T11:25:46.540Z,78.40
2018-11-13T11:28:14.184Z,78.10
2018-11-13T11:30:41.751Z,78.60
2018-11-13T11:33:09.326Z,78.10
2018-11-13T11:35:36.935Z,77.90
2018-11-13T11:38:05.102Z,77.60
2018-11-13T11:40:32.645Z,77.60
2018-11-13T11:43:00.151Z,77.80
2018-11-13T11:45:27.682Z,77.60
2018-11-13T11:47:55.260Z,77.90
2018-11-13T11:50:22.879Z,77.50
2018-11-13T11:52:50.441Z,77.70
2018-11-13T11:55:18.171Z,77.40
2018-11-13T11:57:45.744Z,77.40
2018-11-13T12:00:16.909Z,77.40
2018-11-13T12:02:44.563Z,77.90
2018-11-13T12:05:12.212Z,77.50
2018-11-13T12:07:39.790Z,77.40
2018-11-13T12:10:09.596Z,77.60
2018-11-13T12:12:37.201Z,77.70
2018-11-13T12:15:06.553Z,77.60
2018-11-13T12:17:34.161Z,77.80
2018-11-13T12:20:01.714Z,78.10
2018-11-13T12:22:29.336Z,78.70
2018-11-13T12:24:57.044Z,79.60
2018-11-13T12:27:24.657Z,79.70
2018-11-13T12:29:52.804Z,79.60
2018-11-13T12:32:20.460Z,79.70
2018-11-13T12:34:48.547Z,79.70
2018-11-13T12:37:16.156Z,79.30
2018-11-13T12:39:43.867Z,79.70
2018-11-13T12:42:11.468Z,79.60
2018-11-13T12:44:39.037Z,79.00
2018-11-13T12:47:06.631Z,79.80
2018-11-13T12:49:34.228Z,79.80
2018-11-13T12:52:07.319Z,80.20
2018-11-13T12:54:34.908Z,80.40
2018-11-13T12:57:02.542Z,79.90
2018-11-13T12:59:30.198Z,80.30
2018-11-13T13:01:57.838Z,80.30
2018-11-13T13:04:25.446Z,80.10
2018-11-13T13:06:53.043Z,80.20
2018-11-13T13:09:20.686Z,79.60
2018-11-13T13:11:48.285Z,79.20
2018-11-13T13:14:16.812Z,79.00
2018-11-13T13:16:44.586Z,78.50
2018-11-13T13:19:12.358Z,78.20
2018-11-13T13:21:40.009Z,78.10
2018-11-13T13:24:07.686Z,77.80
2018-11-13T13:26:35.754Z,77.50
2018-11-13T13:29:03.404Z,77.50
2018-11-13T13:31:31.018Z,77.90
2018-11-13T13:33:58.670Z,78.00
2018-11-13T13:36:26.356Z,78.10
2018-11-13T13:38:54.120Z,78.10
2018-11-13T13:41:21.592Z,78.10
2018-11-13T13:43:49.278Z,77.60
2018-11-13T13:46:16.850Z,77.60
2018-11-13T13:48:44.762Z,78.20
2018-11-13T13:51:12.378Z,78.20
2018-11-13T13:53:40.051Z,78.30
2018-11-13T13:56:07.677Z,78.70
2018-11-13T13:58:35.321Z,78.90
2018-11-13T14:01:03.074Z,79.20
2018-11-13T14:03:30.686Z,79.60
2018-11-13T14:05:58.349Z,79.60
2018-11-13T14:08:25.929Z,79.30
2018-11-13T14:10:53.505Z,79.40
2018-11-13T14:13:21.116Z,79.50
2018-11-13T14:15:48.690Z,79.60
2018-11-13T14:18:16.326Z,79.30
2018-11-13T14:20:45.173Z,79.50
2018-11-13T14:23:12.811Z,79.60
2018-11-13T14:25:40.471Z,79.20
2018-11-13T14:28:08.163Z,78.90
2018-11-13T14:30:36.714Z,78.70
2018-11-13T14:33:05.777Z,79.10
2018-11-13T14:35:33.680Z,79.30
2018-11-13T14:38:01.745Z,78.90
2018-11-13T14:40:34.128Z,78.90
2018-11-13T14:43:02.200Z,78.40
2018-11-13T14:45:30.119Z,78.60
2018-11-13T14:47:57.983Z,78.60
2018-11-13T14:50:26.903Z,78.00
2018-11-13T14:52:54.976Z,77.90
2018-11-13T14:55:31.754Z,77.50
2018-11-13T14:58:00.475Z,77.60
2018-11-13T15:00:29.215Z,77.70
2018-11-13T15:02:57.455Z,77.60
2018-11-13T15:05:25.669Z,77.60
2018-11-13T15:07:54.790Z,77.20
2018-11-13T15:10:36.365Z,77.60
2018-11-13T15:13:04.314Z,77.50
2018-11-13T15:15:32.012Z,77.20
2018-11-13T15:17:59.664Z,77.30
2018-11-13T15:20:27.386Z,77.10
2018-11-13T15:22:55.029Z,77.40
2018-11-13T15:25:22.768Z,77.50
2018-11-13T15:27:50.378Z,77.70
2018-11-13T15:30:20.915Z,77.70
2018-11-13T15:32:50.312Z,77.50
2018-11-13T15:35:17.983Z,77.60
2018-11-13T15:37:45.548Z,77.40
2018-11-13T15:40:16.141Z,77.30
2018-11-13T15:42:44.322Z,77.10
2018-11-13T15:45:13.187Z,77.10
2018-11-13T15:47:41.369Z,77.40
2018-11-13T15:50:12.141Z,77.10
2018-11-13T15:52:39.765Z,77.20
2018-11-13T15:55:08.978Z,77.20
2018-11-13T15:57:37.504Z,77.10
2018-11-13T16:00:08.732Z,77.10
2018-11-13T16:02:36.344Z,77.00
2018-11-13T16:05:07.107Z,76.90
2018-11-13T16:07:34.676Z,77.20
2018-11-13T16:10:02.403Z,77.10
2018-11-13T16:12:30.111Z,77.10
2018-11-13T16:14:57.717Z,77.00
2018-11-13T16:17:25.332Z,77.00
2018-11-13T16:19:53.019Z,77.30
2018-11-13T16:22:20.715Z,77.60
2018-11-13T16:24:48.382Z,77.80
2018-11-13T16:27:16.026Z,78.10
2018-11-13T16:29:43.819Z,78.70
2018-11-13T16:32:11.480Z,78.90
2018-11-13T16:34:39.110Z,78.70
2018-11-13T16:37:06.976Z,79.00
2018-11-13T16:39:34.659Z,78.70
2018-11-13T16:42:02.333Z,78.40
2018-11-13T16:44:29.919Z,78.00
2018-11-13T16:46:57.592Z,78.10
2018-11-13T16:49:25.269Z,78.00
2018-11-13T16:51:52.979Z,78.40
2018-11-13T16:54:20.709Z,78.50
2018-11-13T16:56:52.260Z,78.30
2018-11-13T16:59:20.096Z,78.00
2018-11-13T17:01:47.764Z,77.80
2018-11-13T17:04:15.372Z,77.60
2018-11-13T17:06:43.086Z,77.50
2018-11-13T17:09:11.571Z,77.00
2018-11-13T17:11:39.323Z,77.00
2018-11-13T17:14:07.068Z,77.50
2018-11-13T17:16:35.576Z,77.80
2018-11-13T17:19:03.293Z,77.40
2018-11-13T17:21:30.941Z,77.10
2018-11-13T17:23:58.569Z,76.90
2018-11-13T17:26:26.273Z,76.90
2018-11-13T17:28:53.880Z,76.60
2018-11-13T17:31:21.569Z,76.00
2018-11-13T17:33:49.821Z,76.70
2018-11-13T17:36:17.447Z,76.70
2018-11-13T17:38:45.081Z,76.90
2018-11-13T17:41:12.747Z,76.70
2018-11-13T17:43:40.350Z,77.20
2018-11-13T17:46:08.034Z,77.30
2018-11-13T17:48:35.609Z,76.90
2018-11-13T17:51:03.312Z,77.10
2018-11-13T17:53:30.957Z,76.80
2018-11-13T17:55:58.686Z,76.50
2018-11-13T17:58:26.314Z,77.10
2018-11-13T18:00:54.024Z,76.50
2018-11-13T18:03:21.663Z,76.50
2018-11-13T18:05:49.338Z,75.80
2018-11-13T18:08:16.961Z,76.00
2018-11-13T18:10:45.564Z,76.00
2018-11-13T18:13:13.283Z,76.70
2018-11-13T18:15:41.012Z,76.60
2018-11-13T18:18:09.007Z,76.80
2018-11-13T18:20:37.679Z,77.00
2018-11-13T18:23:05.977Z,76.70
2018-11-13T18:25:33.639Z,76.70
2018-11-13T18:28:02.284Z,77.70
2018-11-13T18:30:31.784Z,77.70
2018-11-13T18:33:00.233Z,78.00
2018-11-13T18:35:29.101Z,77.70
2018-11-13T18:37:57.724Z,77.60
2018-11-13T18:40:25.913Z,77.70
2018-11-13T18:42:54.602Z,77.40
2018-11-13T18:45:25.904Z,77.80
2018-11-13T18:47:53.596Z,77.20
2018-11-13T18:50:29.266Z,77.40
2018-11-13T18:52:56.818Z,77.40
2018-11-13T18:55:24.581Z,77.80
2018-11-13T18:57:52.250Z,77.20
2018-11-13T19:00:21.361Z,76.70
2018-11-13T19:02:49.111Z,76.40
2018-11-13T19:05:17.093Z,76.70
2018-11-13T19:07:44.967Z,76.60
2018-11-13T19:10:14.916Z,76.50
2018-11-13T19:12:42.710Z,77.50
2018-11-13T19:15:11.953Z,77.80
2018-11-13T19:17:39.733Z,78.10
2018-11-13T19:20:10.650Z,78.10
2018-11-13T19:22:38.467Z,78.40
2018-11-13T19:25:07.234Z,78.70
2018-11-13T19:27:34.891Z,78.50
2018-11-13T19:30:02.778Z,78.50
2018-11-13T19:32:30.487Z,78.20
2018-11-13T19:34:58.201Z,78.00
2018-11-13T19:37:25.947Z,78.00
2018-11-13T19:39:53.659Z,78.20
2018-11-13T19:42:21.338Z,77.90
2018-11-13T19:44:49.320Z,78.20
2018-11-13T19:47:16.621Z,78.20
2018-11-13T19:49:44.332Z,77.90
2018-11-13T19:52:12.600Z,77.80
2018-11-13T19:54:40.329Z,77.90
2018-11-13T19:57:08.299Z,77.90
2018-11-13T19:59:35.978Z,78.00
2018-11-13T20:02:03.887Z,78.00
2018-11-13T20:04:31.633Z,78.10
2018-11-13T20:06:59.423Z,78.00
2018-11-13T20:09:27.144Z,77.60
2018-11-13T20:11:54.969Z,77.00
2018-11-13T20:14:22.699Z,76.90
2018-11-13T20:16:50.461Z,77.20
2018-11-13T20:19:18.243Z,77.40
2018-11-13T20:21:46.044Z,77.60
2018-11-13T20:24:13.791Z,77.90
2018-11-13T20:26:42.299Z,77.70
2018-11-13T20:29:10.166Z,78.00
2018-11-13T20:31:38.097Z,78.00
2018-11-13T20:34:06.020Z,78.30
2018-11-13T20:36:35.944Z,78.30
2018-11-13T20:39:06.516Z,78.40
2018-11-13T20:41:34.159Z,78.40
2018-11-13T20:44:01.889Z,78.50
2018-11-13T20:46:29.610Z,78.80
2018-11-13T20:48:57.379Z,78.50
2018-11-13T20:51:25.159Z,78.50
2018-11-13T20:53:52.820Z,78.40
2018-11-13T20:56:20.504Z,78.40
2018-11-13T20:58:48.219Z,78.40
2018-11-13T21:01:16.003Z,78.70
2018-11-13T21:03:43.692Z,78.80
2018-11-13T21:06:11.381Z,78.80
2018-11-13T21:08:39.127Z,78.90
2018-11-13T21:11:06.835Z,78.90
2018-11-13T21:13:34.601Z,78.80
2018-11-13T21:16:02.282Z,78.50
2018-11-13T21:18:29.838Z,78.50
2018-11-13T21:20:57.472Z,78.50
2018-11-13T21:23:25.191Z,78.30
2018-11-13T21:25:52.864Z,78.60
2018-11-13T21:28:20.823Z,78.80
2018-11-13T21:30:48.383Z,78.70
2018-11-13T21:33:16.069Z,78.50
2018-11-13T21:35:43.811Z,78.40
2018-11-13T21:38:11.518Z,78.50
2018-11-13T21:40:39.175Z,78.80
2018-11-13T21:43:06.757Z,78.80
2018-11-13T21:45:34.369Z,78.80
2018-11-13T21:48:01.998Z,78.50
2018-11-13T21:50:29.831Z,78.50
2018-11-13T21:52:57.638Z,78.50
2018-11-13T21:55:26.404Z,79.20
2018-11-13T21:57:53.993Z,79.30
2018-11-13T22:00:23.630Z,79.20
2018-11-13T22:02:53.202Z,79.80
2018-11-13T22:05:21.746Z,79.40
2018-11-13T22:07:49.294Z,79.50
2018-11-13T22:10:17.009Z,79.40
2018-11-13T22:12:45.166Z,79.50
2018-11-13T22:15:13.671Z,79.20
2018-11-13T22:17:41.325Z,79.90
2018-11-13T22:20:10.456Z,79.00
2018-11-13T22:22:38.523Z,79.60
2018-11-13T22:25:08.518Z,79.60
2018-11-13T22:27:36.148Z,79.00
2018-11-13T22:30:04.253Z,79.00
2018-11-13T22:32:31.876Z,79.10
2018-11-13T22:34:59.496Z,79.30
2018-11-13T22:37:27.126Z,79.20
2018-11-13T22:39:54.973Z,79.50
2018-11-13T22:42:22.310Z,79.50
2018-11-13T22:44:50.158Z,79.60
2018-11-13T22:47:17.832Z,79.30
2018-11-13T22:49:45.396Z,79.20
2018-11-13T22:52:12.962Z,78.80
2018-11-13T22:54:41.623Z,79.10
2018-11-13T22:57:09.903Z,79.10
2018-11-13T22:59:37.526Z,79.30
2018-11-13T23:02:05.118Z,79.40
2018-11-13T23:04:32.705Z,79.50
2018-11-13T23:07:00.334Z,79.80
2018-11-13T23:09:27.984Z,79.40
2018-11-13T23:11:55.554Z,80.20
2018-11-13T23:14:23.139Z,80.10
2018-11-13T23:16:50.716Z,79.70
2018-11-13T23:19:18.271Z,79.70
2018-11-13T23:21:45.849Z,79.50
2018-11-13T23:24:13.374Z,79.30
2018-11-13T23:26:41.351Z,79.00
2018-11-13T23:29:08.546Z,77.90
2018-11-13T23:31:36.118Z,79.20
2018-11-13T23:34:03.770Z,79.00
2018-11-13T23:36:31.364Z,79.00
2018-11-13T23:38:58.898Z,78.80
2018-11-13T23:41:26.466Z,78.70
2018-11-13T23:43:54.005Z,78.90
2018-11-13T23:46:21.606Z,78.00
2018-11-13T23:48:49.198Z,78.30
2018-11-13T23:51:16.747Z,78.40
2018-11-13T23:53:44.394Z,78.40
2018-11-13T23:56:11.878Z,78.80
2018-11-13T23:58:39.447Z,79.30
